createdAt,value
2018-05-14T00:01:56.101Z,51.60
2018-05-14T00:04:22.114Z,52.20
2018-05-14T00:06:48.938Z,47.47
2018-05-14T00:09:14.953Z,46.47
2018-05-14T00:11:40.950Z,41.57
2018-05-14T00:14:07.702Z,44.63
2018-05-14T00:16:34.439Z,39.83
2018-05-14T00:19:00.445Z,39.30
2018-05-14T00:21:26.450Z,49.80
2018-05-14T00:23:52.462Z,48.40
2018-05-14T00:26:19.213Z,53.57
2018-05-14T00:28:45.972Z,50.20
2018-05-14T00:31:12.723Z,51.80
2018-05-14T00:33:39.535Z,58.23
2018-05-14T00:36:05.539Z,59.77
2018-05-14T00:38:31.570Z,45.93
2018-05-14T00:40:57.572Z,50.10
2018-05-14T00:43:24.317Z,55.23
2018-05-14T00:45:50.325Z,57.80
2018-05-14T00:48:16.352Z,49.93
2018-05-14T00:50:42.350Z,50.77
2018-05-14T00:53:09.114Z,49.27
2018-05-14T00:55:35.121Z,48.43
2018-05-14T00:58:01.876Z,43.33
2018-05-14T01:00:28.720Z,43.43
2018-05-14T01:02:54.730Z,37.00
2018-05-14T01:05:20.747Z,44.13
2018-05-14T01:07:46.758Z,49.53
2018-05-14T01:10:12.769Z,46.03
2018-05-14T01:12:38.873Z,45.07
2018-05-14T01:15:04.888Z,42.23
2018-05-14T01:17:30.905Z,47.33
2018-05-14T01:19:56.906Z,42.23
2018-05-14T01:22:22.918Z,48.93
2018-05-14T01:24:55.070Z,47.43
2018-05-14T01:27:21.053Z,45.57
2018-05-14T01:29:47.065Z,51.17
2018-05-14T01:32:13.060Z,48.80
2018-05-14T01:34:39.058Z,53.77
2018-05-14T01:37:05.076Z,41.60
2018-05-14T01:39:31.085Z,42.27
2018-05-14T01:41:57.082Z,46.23
2018-05-14T01:44:23.836Z,42.00
2018-05-14T01:46:50.578Z,33.57
2018-05-14T01:49:16.590Z,40.47
2018-05-14T01:51:42.605Z,35.07
2018-05-14T01:54:08.613Z,34.33
2018-05-14T01:56:34.634Z,38.40
2018-05-14T01:59:01.383Z,35.43
2018-05-14T02:01:28.197Z,37.30
2018-05-14T02:03:54.244Z,38.30
2018-05-14T02:06:20.262Z,35.13
2018-05-14T02:08:46.282Z,34.40
2018-05-14T02:11:12.301Z,37.00
2018-05-14T02:13:38.313Z,37.30
2018-05-14T02:16:04.330Z,35.20
2018-05-14T02:18:30.457Z,40.60
2018-05-14T02:20:56.474Z,48.53
2018-05-14T02:23:22.485Z,41.67
2018-05-14T02:25:48.502Z,42.23
2018-05-14T02:28:15.253Z,46.93
2018-05-14T02:30:42.005Z,43.60
2018-05-14T02:33:08.770Z,38.80
2018-05-14T02:35:35.525Z,52.40
2018-05-14T02:38:01.562Z,45.07
2018-05-14T02:40:28.322Z,41.90
2018-05-14T02:42:54.410Z,37.60
2018-05-14T02:45:20.433Z,40.43
2018-05-14T02:47:46.449Z,40.50
2018-05-14T02:50:12.474Z,35.87
2018-05-14T02:52:38.514Z,39.70
2018-05-14T02:55:04.533Z,41.23
2018-05-14T02:57:30.549Z,36.80
2018-05-14T02:59:57.309Z,38.33
2018-05-14T03:02:24.072Z,41.80
2018-05-14T03:04:50.115Z,40.63
2018-05-14T03:07:16.878Z,41.40
2018-05-14T03:09:42.881Z,45.13
2018-05-14T03:12:09.005Z,40.97
2018-05-14T03:14:35.009Z,40.80
2018-05-14T03:17:01.037Z,43.53
2018-05-14T03:19:27.045Z,36.97
2018-05-14T03:21:53.800Z,42.13
2018-05-14T03:24:19.814Z,39.27
2018-05-14T03:26:45.829Z,37.13
2018-05-14T03:29:11.846Z,41.33
2018-05-14T03:31:37.866Z,46.50
2018-05-14T03:34:03.875Z,39.07
2018-05-14T03:36:30.636Z,43.93
2018-05-14T03:38:56.654Z,38.97
2018-05-14T03:41:23.446Z,39.50
2018-05-14T03:43:49.497Z,44.50
2018-05-14T03:46:15.573Z,41.60
2018-05-14T03:48:42.333Z,40.83
2018-05-14T03:51:09.110Z,43.27
2018-05-14T03:53:35.129Z,41.80
2018-05-14T03:56:01.911Z,34.70
2018-05-14T03:58:40.405Z,37.80
2018-05-14T04:01:14.210Z,37.20
2018-05-14T04:03:52.544Z,33.43
2018-05-14T04:06:31.061Z,34.70
2018-05-14T04:08:57.078Z,37.50
2018-05-14T04:11:23.090Z,29.13
2018-05-14T04:13:49.148Z,32.70
2018-05-14T04:16:15.153Z,33.33
2018-05-14T04:18:41.157Z,35.60
2018-05-14T04:21:07.913Z,35.27
2018-05-14T04:23:34.666Z,35.20
2018-05-14T04:26:01.429Z,33.13
2018-05-14T04:28:28.189Z,33.07
2018-05-14T04:30:54.193Z,35.80
2018-05-14T04:33:20.211Z,31.80
2018-05-14T04:35:46.230Z,31.37
2018-05-14T04:38:12.234Z,33.63
2018-05-14T04:40:38.260Z,28.40
2018-05-14T04:43:05.014Z,32.53
2018-05-14T04:45:31.770Z,27.73
2018-05-14T04:47:58.525Z,31.90
2018-05-14T04:50:24.532Z,29.50
2018-05-14T04:52:50.541Z,28.07
2018-05-14T04:55:16.574Z,29.40
2018-05-14T04:57:42.593Z,30.47
2018-05-14T05:00:08.606Z,33.03
2018-05-14T05:02:34.625Z,29.03
2018-05-14T05:05:01.370Z,26.83
2018-05-14T05:07:27.390Z,26.40
2018-05-14T05:09:53.418Z,29.83
2018-05-14T05:12:19.454Z,27.40
2018-05-14T05:14:45.465Z,35.63
2018-05-14T05:17:11.531Z,40.87
2018-05-14T05:19:37.506Z,45.47
2018-05-14T05:22:04.270Z,37.80
2018-05-14T05:24:30.273Z,43.17
2018-05-14T05:26:56.283Z,39.70
2018-05-14T05:29:22.307Z,39.83
2018-05-14T05:31:48.327Z,31.73
2018-05-14T05:34:14.346Z,36.13
2018-05-14T05:36:40.366Z,43.40
2018-05-14T05:39:07.126Z,47.70
2018-05-14T05:41:33.870Z,39.60
2018-05-14T05:44:00.622Z,42.27
2018-05-14T05:46:27.383Z,32.03
2018-05-14T05:48:54.152Z,44.50
2018-05-14T05:51:20.166Z,39.40
2018-05-14T05:53:46.929Z,41.67
2018-05-14T05:56:13.685Z,33.23
2018-05-14T05:58:39.692Z,33.70
2018-05-14T06:01:05.817Z,34.70
2018-05-14T06:03:31.832Z,39.67
2018-05-14T06:05:57.851Z,35.77
2018-05-14T06:08:23.853Z,31.00
2018-05-14T06:10:50.655Z,36.60
2018-05-14T06:13:16.657Z,29.57
2018-05-14T06:15:42.684Z,42.37
2018-05-14T06:18:09.440Z,40.00
2018-05-14T06:20:36.177Z,29.10
2018-05-14T06:23:02.284Z,34.60
2018-05-14T06:25:28.283Z,32.67
2018-05-14T06:27:54.324Z,38.33
2018-05-14T06:30:20.310Z,36.30
2018-05-14T06:32:46.321Z,43.33
2018-05-14T06:35:12.322Z,35.50
2018-05-14T06:37:38.327Z,31.20
2018-05-14T06:40:04.329Z,36.23
2018-05-14T06:42:30.356Z,34.03
2018-05-14T06:44:56.370Z,32.43
2018-05-14T06:47:22.390Z,37.50
2018-05-14T06:49:48.433Z,33.77
2018-05-14T06:52:15.168Z,32.17
2018-05-14T06:54:41.936Z,31.10
2018-05-14T06:57:07.949Z,36.50
2018-05-14T06:59:34.711Z,37.93
2018-05-14T07:02:01.461Z,38.23
2018-05-14T07:04:28.225Z,34.67
2018-05-14T07:06:54.982Z,46.90
2018-05-14T07:09:21.791Z,47.70
2018-05-14T07:11:47.814Z,40.10
2018-05-14T07:14:13.833Z,42.57
2018-05-14T07:16:39.840Z,35.10
2018-05-14T07:19:06.593Z,43.93
2018-05-14T07:21:33.342Z,43.43
2018-05-14T07:24:00.114Z,38.17
2018-05-14T07:26:26.297Z,36.20
2018-05-14T07:28:52.337Z,38.57
2018-05-14T07:31:18.343Z,39.90
2018-05-14T07:33:44.350Z,36.60
2018-05-14T07:36:11.190Z,29.00
2018-05-14T07:38:37.134Z,30.77
2018-05-14T07:41:03.893Z,37.43
2018-05-14T07:43:29.922Z,36.67
2018-05-14T07:45:56.677Z,23.73
2018-05-14T07:48:23.423Z,35.03
2018-05-14T07:50:50.189Z,44.20
2018-05-14T07:53:16.198Z,48.27
2018-05-14T07:55:42.957Z,27.40
2018-05-14T07:58:09.715Z,34.67
2018-05-14T08:00:36.467Z,34.97
2018-05-14T08:03:03.217Z,29.87
2018-05-14T08:05:30.025Z,33.77
2018-05-14T08:07:55.997Z,38.70
2018-05-14T08:10:22.006Z,36.50
2018-05-14T08:12:48.005Z,33.57
2018-05-14T08:15:14.005Z,39.50
2018-05-14T08:17:40.026Z,35.37
2018-05-14T08:20:06.043Z,39.03
2018-05-14T08:22:32.040Z,40.97
2018-05-14T08:24:58.795Z,29.83
2018-05-14T08:27:24.788Z,32.67
2018-05-14T08:29:50.907Z,43.13
2018-05-14T08:32:16.910Z,41.57
2018-05-14T08:34:42.933Z,34.77
2018-05-14T08:37:09.746Z,38.20
2018-05-14T08:39:35.696Z,37.30
2018-05-14T08:42:01.699Z,20.30
2018-05-14T08:44:27.737Z,29.33
2018-05-14T08:46:53.734Z,24.97
2018-05-14T08:49:19.752Z,27.77
2018-05-14T08:51:46.489Z,22.43
2018-05-14T08:54:12.543Z,23.13
2018-05-14T08:56:38.499Z,22.00
2018-05-14T08:59:04.563Z,41.47
2018-05-14T09:01:30.568Z,27.83
2018-05-14T09:03:56.557Z,26.73
2018-05-14T09:06:22.557Z,23.67
2018-05-14T09:08:48.708Z,25.80
2018-05-14T09:11:15.312Z,33.33
2018-05-14T09:13:41.304Z,22.03
2018-05-14T09:16:07.319Z,28.87
2018-05-14T09:18:33.308Z,24.13
2018-05-14T09:21:00.074Z,21.10
2018-05-14T09:23:26.074Z,23.33
2018-05-14T09:25:52.074Z,22.10
2018-05-14T09:28:18.067Z,24.13
2018-05-14T09:30:44.069Z,30.80
2018-05-14T09:33:10.065Z,23.53
2018-05-14T09:35:36.106Z,19.57
2018-05-14T09:38:02.110Z,30.53
2018-05-14T09:43:00.790Z,26.43
2018-05-14T09:45:26.785Z,18.20
2018-05-14T09:47:52.781Z,25.97
2018-05-14T09:50:18.789Z,24.90
2018-05-14T09:52:44.781Z,21.60
2018-05-14T09:55:10.791Z,29.70
2018-05-14T09:57:36.785Z,31.90
2018-05-14T10:00:02.789Z,19.63
2018-05-14T10:02:28.791Z,24.40
2018-05-14T10:04:54.806Z,24.13
2018-05-14T10:07:20.835Z,39.93
2018-05-14T10:09:46.848Z,28.70
2018-05-14T10:12:12.869Z,29.97
2018-05-14T10:14:38.870Z,28.70
2018-05-14T10:17:04.872Z,47.90
2018-05-14T10:19:30.917Z,34.97
2018-05-14T10:21:56.929Z,33.87
2018-05-14T10:24:22.987Z,37.57
2018-05-14T10:26:49.000Z,45.90
2018-05-14T10:29:15.008Z,44.80
2018-05-14T10:31:41.761Z,41.77
2018-05-14T10:34:08.590Z,39.83
2018-05-14T10:36:34.651Z,44.07
2018-05-14T10:39:01.449Z,59.03
2018-05-14T10:41:27.466Z,47.03
2018-05-14T10:43:53.563Z,72.77
2018-05-14T10:46:20.320Z,50.23
2018-05-14T10:48:47.065Z,52.83
2018-05-14T10:51:13.177Z,52.20
2018-05-14T10:53:39.245Z,38.23
2018-05-14T10:56:06.012Z,46.47
2018-05-14T10:58:39.000Z,39.33
2018-05-14T11:01:04.944Z,50.33
2018-05-14T11:03:31.065Z,43.40
2018-05-14T11:05:57.845Z,42.10
2018-05-14T11:08:38.961Z,43.03
2018-05-14T11:11:04.985Z,51.57
2018-05-14T11:13:31.265Z,47.80
2018-05-14T11:15:57.285Z,38.37
2018-05-14T11:18:23.461Z,47.90
2018-05-14T11:20:50.306Z,40.93
2018-05-14T11:23:16.454Z,41.90
2018-05-14T11:25:43.229Z,38.93
2018-05-14T11:28:09.253Z,37.17
2018-05-14T11:30:36.153Z,36.37
2018-05-14T11:33:02.164Z,35.83
2018-05-14T11:35:28.264Z,39.30
2018-05-14T11:37:54.274Z,35.40
2018-05-14T11:40:20.291Z,38.97
2018-05-14T11:42:46.314Z,36.37
2018-05-14T11:45:12.319Z,38.90
2018-05-14T11:47:39.075Z,41.03
2018-05-14T11:50:05.877Z,39.33
2018-05-14T11:52:31.885Z,45.83
2018-05-14T11:54:57.895Z,40.97
2018-05-14T11:57:24.678Z,43.60
2018-05-14T11:59:50.699Z,40.43
2018-05-14T12:02:16.750Z,44.33
2018-05-14T12:04:42.767Z,44.20
2018-05-14T12:07:08.785Z,42.83
2018-05-14T12:09:35.530Z,43.07
2018-05-14T12:12:01.541Z,42.27
2018-05-14T12:14:27.555Z,44.60
2018-05-14T12:16:53.583Z,42.07
2018-05-14T12:19:19.609Z,46.53
2018-05-14T12:21:45.624Z,44.60
2018-05-14T12:24:12.366Z,46.60
2018-05-14T12:26:39.112Z,41.73
2018-05-14T12:29:05.861Z,42.90
2018-05-14T12:31:31.866Z,39.40
2018-05-14T12:33:57.952Z,43.33
2018-05-14T12:36:24.853Z,42.40
2018-05-14T12:38:50.867Z,42.10
2018-05-14T12:41:16.876Z,43.00
2018-05-14T12:43:43.631Z,45.47
2018-05-14T12:46:10.480Z,41.80
2018-05-14T12:48:36.418Z,42.50
2018-05-14T12:51:03.182Z,41.80
2018-05-14T12:53:29.202Z,42.57
2018-05-14T12:55:55.960Z,42.53
2018-05-14T12:58:22.762Z,43.60
2018-05-14T13:00:48.818Z,41.77
2018-05-14T13:03:14.826Z,42.40
2018-05-14T13:05:40.833Z,41.63
2018-05-14T13:08:06.843Z,42.20
2018-05-14T13:10:33.586Z,41.57
2018-05-14T13:12:59.678Z,44.30
2018-05-14T13:15:25.616Z,44.77
2018-05-14T13:17:51.630Z,46.20
2018-05-14T13:20:17.634Z,44.80
2018-05-14T13:22:44.378Z,45.60
2018-05-14T13:25:10.381Z,43.50
2018-05-14T13:27:36.404Z,43.90
2018-05-14T13:30:02.419Z,43.30
2018-05-14T13:32:28.439Z,42.87
2018-05-14T13:34:55.234Z,39.70
2018-05-14T13:37:21.263Z,41.77
2018-05-14T13:39:47.329Z,41.27
2018-05-14T13:42:13.351Z,40.10
2018-05-14T13:44:39.412Z,43.17
2018-05-14T13:47:05.405Z,45.40
2018-05-14T13:49:31.413Z,44.60
2018-05-14T13:51:57.417Z,45.30
2018-05-14T13:54:23.461Z,45.30
2018-05-14T13:56:50.204Z,46.53
2018-05-14T13:59:16.213Z,46.70
2018-05-14T14:01:42.205Z,44.80
2018-05-14T14:04:08.947Z,46.77
2018-05-14T14:06:35.821Z,43.67
2018-05-14T14:09:01.832Z,44.87
2018-05-14T14:11:28.666Z,48.33
2018-05-14T14:13:55.342Z,46.70
2018-05-14T14:16:22.085Z,42.07
2018-05-14T14:18:48.834Z,40.30
2018-05-14T14:21:15.576Z,43.70
2018-05-14T14:23:41.802Z,44.13
2018-05-14T14:26:07.614Z,44.80
2018-05-14T14:28:33.629Z,40.30
2018-05-14T14:30:59.670Z,41.73
2018-05-14T14:33:32.839Z,42.73
2018-05-14T14:35:59.642Z,41.77
2018-05-14T14:38:25.651Z,42.50
2018-05-14T14:40:51.663Z,42.27
2018-05-14T14:43:18.421Z,41.63
2018-05-14T14:45:45.153Z,42.90
2018-05-14T14:48:11.175Z,43.33
2018-05-14T14:50:37.174Z,42.90
2018-05-14T14:53:03.186Z,45.47
2018-05-14T14:55:29.921Z,42.93
2018-05-14T14:57:56.680Z,43.10
2018-05-14T15:00:23.423Z,39.90
2018-05-14T15:02:49.535Z,47.03
2018-05-14T15:05:15.553Z,44.10
2018-05-14T15:07:41.580Z,51.70
2018-05-14T15:10:07.617Z,50.90
2018-05-14T15:12:33.618Z,50.30
2018-05-14T15:15:00.369Z,50.37
2018-05-14T15:17:26.387Z,43.40
2018-05-14T15:19:53.149Z,43.57
2018-05-14T15:22:19.938Z,43.73
2018-05-14T15:24:46.002Z,44.17
2018-05-14T15:27:12.055Z,41.30
2018-05-14T15:29:38.090Z,41.20
2018-05-14T15:32:04.100Z,40.60
2018-05-14T15:34:30.107Z,42.40
2018-05-14T15:36:56.118Z,41.53
2018-05-14T15:39:22.870Z,48.47
2018-05-14T15:41:49.631Z,43.97
2018-05-14T15:44:16.389Z,56.00
2018-05-14T15:46:42.478Z,49.00
2018-05-14T15:49:08.494Z,47.13
2018-05-14T15:51:34.500Z,43.67
2018-05-14T15:54:00.514Z,54.07
2018-05-14T15:56:27.327Z,58.10
2018-05-14T15:58:54.039Z,68.33
2018-05-14T16:01:20.045Z,77.23
2018-05-14T16:03:46.165Z,63.67
2018-05-14T16:06:12.173Z,42.43
2018-05-14T16:08:38.183Z,37.17
2018-05-14T16:11:04.202Z,64.77
2018-05-14T16:13:30.946Z,55.77
2018-05-14T16:15:56.962Z,44.83
2018-05-14T16:18:22.965Z,35.83
2018-05-14T16:20:49.082Z,43.70
2018-05-14T16:23:14.986Z,74.50
2018-05-14T16:25:41.000Z,64.97
2018-05-14T16:28:07.020Z,96.07
2018-05-14T16:30:33.035Z,80.27
2018-05-14T16:32:59.039Z,61.93
2018-05-14T16:35:25.789Z,63.87
2018-05-14T16:37:52.529Z,65.57
2018-05-14T16:40:18.643Z,72.87
2018-05-14T16:42:44.649Z,80.93
2018-05-14T16:45:10.666Z,88.40
2018-05-14T16:47:36.680Z,87.90
2018-05-14T16:50:02.760Z,77.43
2018-05-14T16:52:28.687Z,47.27
2018-05-14T16:54:54.759Z,50.80
2018-05-14T16:57:20.758Z,49.00
2018-05-14T16:59:46.769Z,51.73
2018-05-14T17:02:13.524Z,58.90
2018-05-14T17:04:46.694Z,68.47
2018-05-14T17:07:12.689Z,65.37
2018-05-14T17:09:38.698Z,76.83
2018-05-14T17:12:05.473Z,70.53
2018-05-14T17:14:31.485Z,66.40
2018-05-14T17:16:58.230Z,64.17
2018-05-14T17:19:25.064Z,87.27
2018-05-14T17:21:51.081Z,77.83
2018-05-14T17:24:17.111Z,81.97
2018-05-14T17:26:43.135Z,69.50
2018-05-14T17:29:09.142Z,78.37
2018-05-14T17:31:35.966Z,82.67
2018-05-14T17:34:01.987Z,81.00
2018-05-14T17:36:28.013Z,72.40
2018-05-14T17:38:54.030Z,80.47
2018-05-14T17:41:20.053Z,71.33
2018-05-14T17:43:46.070Z,74.70
2018-05-14T17:46:12.898Z,75.60
2018-05-14T17:48:38.921Z,76.93
2018-05-14T17:51:04.937Z,59.60
2018-05-14T17:53:30.954Z,72.00
2018-05-14T17:55:56.970Z,87.80
2018-05-14T17:58:23.731Z,81.83
2018-05-14T18:00:50.504Z,100.90
2018-05-14T18:03:16.579Z,99.20
2018-05-14T18:05:42.597Z,80.80
2018-05-14T18:08:08.591Z,73.80
2018-05-14T18:10:35.423Z,89.47
2018-05-14T18:13:01.355Z,98.00
2018-05-14T18:15:27.422Z,93.17
2018-05-14T18:17:53.574Z,69.30
2018-05-14T18:20:24.641Z,68.03
2018-05-14T18:22:50.722Z,67.90
2018-05-14T18:25:22.954Z,70.40
2018-05-14T18:27:55.347Z,88.20
2018-05-14T18:30:27.893Z,72.50
2018-05-14T18:33:00.714Z,89.57
2018-05-14T18:35:26.737Z,85.67
2018-05-14T18:37:53.487Z,85.47
2018-05-14T18:40:20.220Z,101.10
2018-05-14T18:42:46.219Z,90.80
2018-05-14T18:45:12.314Z,80.80
2018-05-14T18:47:39.057Z,85.83
2018-05-14T18:50:05.809Z,76.53
2018-05-14T18:52:32.571Z,70.93
2018-05-14T18:54:59.322Z,82.33
2018-05-14T18:57:26.074Z,96.73
2018-05-14T18:59:52.831Z,116.00
2018-05-14T19:02:19.586Z,100.57
2018-05-14T19:04:46.329Z,100.53
2018-05-14T19:07:13.083Z,73.53
2018-05-14T19:09:39.840Z,106.93
2018-05-14T19:12:06.630Z,118.10
2018-05-14T19:14:32.690Z,112.77
2018-05-14T19:17:05.001Z,128.63
2018-05-14T19:19:30.996Z,126.33
2018-05-14T19:21:57.003Z,113.77
2018-05-14T19:24:23.071Z,120.43
2018-05-14T19:26:49.099Z,96.70
2018-05-14T19:29:21.389Z,112.20
2018-05-14T19:31:47.329Z,115.53
2018-05-14T19:34:19.305Z,85.27
2018-05-14T19:36:45.324Z,106.90
2018-05-14T19:39:11.337Z,107.57
2018-05-14T19:41:37.407Z,91.07
2018-05-14T19:44:04.112Z,125.43
2018-05-14T19:46:30.895Z,112.60
2018-05-14T19:48:56.909Z,114.13
2018-05-14T19:51:22.926Z,128.13
2018-05-14T19:53:48.937Z,111.67
2018-05-14T19:56:14.966Z,110.20
2018-05-14T19:58:40.977Z,83.43
2018-05-14T20:01:06.992Z,111.63
2018-05-14T20:03:33.905Z,165.03
2018-05-14T20:05:59.818Z,131.37
2018-05-14T20:08:25.842Z,130.07
2018-05-14T20:10:51.925Z,147.10
2018-05-14T20:13:17.938Z,141.27
2018-05-14T20:15:43.989Z,131.37
2018-05-14T20:18:10.060Z,132.40
2018-05-14T20:20:36.082Z,127.73
2018-05-14T20:23:02.853Z,125.63
2018-05-14T20:25:28.866Z,119.33
2018-05-14T20:27:54.892Z,122.90
2018-05-14T20:30:20.909Z,130.33
2018-05-14T20:32:46.928Z,130.27
2018-05-14T20:35:12.961Z,132.57
2018-05-14T20:37:38.978Z,112.00
2018-05-14T20:40:05.006Z,125.93
2018-05-14T20:42:31.053Z,124.40
2018-05-14T20:44:57.071Z,136.80
2018-05-14T20:47:23.834Z,119.67
2018-05-14T20:49:49.861Z,126.57
2018-05-14T20:52:16.727Z,93.00
2018-05-14T20:54:42.674Z,69.93
2018-05-14T20:57:08.739Z,63.00
2018-05-14T20:59:34.759Z,61.10
2018-05-14T21:02:00.867Z,61.33
2018-05-14T21:04:26.931Z,53.50
2018-05-14T21:06:52.953Z,47.73
2018-05-14T21:09:18.984Z,42.00
2018-05-14T21:11:45.002Z,34.30
2018-05-14T21:14:11.781Z,0.70
2018-05-14T21:16:37.802Z,0.63
2018-05-14T21:19:03.900Z,0.70
2018-05-14T21:21:29.914Z,1.50
2018-05-14T21:23:55.929Z,1.00
2018-05-14T21:26:21.954Z,0.60
2018-05-14T21:28:47.978Z,3.17
2018-05-14T21:31:14.792Z,0.90
2018-05-14T21:33:40.759Z,0.70
2018-05-14T21:36:07.519Z,0.70
2018-05-14T21:38:34.288Z,0.70
2018-05-14T21:41:00.302Z,1.27
2018-05-14T21:43:27.084Z,2.53
2018-05-14T21:45:53.098Z,1.03
2018-05-14T21:48:19.891Z,1.50
2018-05-14T21:50:45.988Z,1.43
2018-05-14T21:53:12.016Z,1.27
2018-05-14T21:55:38.788Z,0.90
2018-05-14T21:58:04.802Z,1.30
2018-05-14T22:00:31.578Z,0.70
2018-05-14T22:02:57.585Z,0.90
2018-05-14T22:05:23.605Z,1.30
2018-05-14T22:07:49.728Z,0.70
2018-05-14T22:10:15.757Z,3.43
2018-05-14T22:12:41.772Z,0.70
2018-05-14T22:15:07.802Z,0.70
2018-05-14T22:17:33.818Z,0.70
2018-05-14T22:20:00.583Z,0.70
2018-05-14T22:22:26.602Z,0.60
2018-05-14T22:24:53.363Z,0.67
2018-05-14T22:27:20.123Z,0.60
2018-05-14T22:29:46.147Z,1.87
2018-05-14T22:32:12.899Z,0.67
2018-05-14T22:34:39.656Z,0.60
2018-05-14T22:37:06.404Z,0.70
2018-05-14T22:39:33.165Z,0.60
2018-05-14T22:41:59.916Z,0.70
2018-05-14T22:44:26.665Z,0.90
2018-05-14T22:46:53.415Z,0.70
2018-05-14T22:49:20.178Z,0.60
2018-05-14T22:51:46.186Z,0.60
2018-05-14T22:54:13.021Z,1.00
2018-05-14T22:56:39.053Z,2.70
2018-05-14T22:59:05.071Z,1.77
2018-05-14T23:01:31.100Z,1.13
2018-05-14T23:03:57.106Z,1.53
2018-05-14T23:06:23.129Z,0.80
2018-05-14T23:08:49.884Z,0.80
2018-05-14T23:11:16.658Z,2.20
2018-05-14T23:13:42.669Z,1.87
2018-05-14T23:16:09.435Z,0.60
2018-05-14T23:18:35.440Z,0.67
2018-05-14T23:21:01.468Z,1.33
2018-05-14T23:23:27.485Z,0.60
2018-05-14T23:25:53.530Z,0.70
2018-05-14T23:28:19.540Z,2.27
2018-05-14T23:30:45.573Z,1.23
2018-05-14T23:33:11.588Z,0.80
2018-05-14T23:35:37.618Z,1.03
2018-05-14T23:38:03.629Z,0.60
2018-05-14T23:40:29.657Z,0.70
2018-05-14T23:42:55.670Z,1.87
2018-05-14T23:45:21.695Z,1.00
2018-05-14T23:47:47.743Z,0.80
2018-05-14T23:50:13.775Z,3.43
2018-05-14T23:52:39.785Z,0.70
2018-05-14T23:55:05.808Z,0.60
2018-05-14T23:57:31.829Z,2.90
2018-05-14T23:59:58.614Z,0.80
